Time;durP1;ratioP1;P1;durP2;ratioP2;P2;SDS_P1;SDS_P2;PMS_P1;PMS_P2;Temp;Humidity;BMP_temperature;BMP_pressure;BME280_temperature;BME280_humidity;BME280_pressure;Samples;Min_cycle;Max_cycle;Signal;HPM_P1;HPM_P2
2023/04/21 00:00:06;;;;;;;34.97;24.43;;;;;;;;;;5013478;28;20231;-85
2023/04/21 00:02:38;;;;;;;34.53;23.10;;;;;;;;;;5018693;28;20711;-86
2023/04/21 00:05:06;;;;;;;37.53;24.07;;;;;;;;;;5016513;28;20231;-86
2023/04/21 00:07:34;;;;;;;38.17;23.77;;;;;;;;;;5021519;28;20213;-86
2023/04/21 00:10:01;;;;;;;31.67;21.47;;;;;;;;;;5012521;28;20235;-85
2023/04/21 00:12:29;;;;;;;32.77;21.13;;;;;;;;;;5012240;28;20223;-86
2023/04/21 00:14:56;;;;;;;31.57;20.83;;;;;;;;;;5012822;28;20216;-85
2023/04/21 00:17:23;;;;;;;32.87;21.23;;;;;;;;;;5017652;28;20235;-86
2023/04/21 00:19:50;;;;;;;30.60;21.37;;;;;;;;;;5012463;28;20231;-86
2023/04/21 00:22:17;;;;;;;32.07;21.27;;;;;;;;;;5011610;28;20223;-86
2023/04/21 00:24:45;;;;;;;29.60;20.13;;;;;;;;;;5017642;28;20704;-86
2023/04/21 00:27:12;;;;;;;28.67;20.17;;;;;;;;;;5021946;28;20231;-86
2023/04/21 00:29:40;;;;;;;30.93;20.40;;;;;;;;;;5012505;28;20310;-85
2023/04/21 00:32:08;;;;;;;32.27;21.43;;;;;;;;;;5016209;28;20234;-86
2023/04/21 00:34:36;;;;;;;32.00;21.33;;;;;;;;;;5012306;28;20215;-86
2023/04/21 00:37:03;;;;;;;32.20;20.97;;;;;;;;;;5015669;28;20242;-86
2023/04/21 00:39:30;;;;;;;31.23;20.87;;;;;;;;;;5011990;28;20612;-86
2023/04/21 00:41:57;;;;;;;32.37;21.53;;;;;;;;;;5011806;28;20253;-86
2023/04/21 00:44:24;;;;;;;30.17;21.37;;;;;;;;;;5013189;28;20212;-86
2023/04/21 00:46:52;;;;;;;32.80;22.83;;;;;;;;;;5011615;28;20310;-86
2023/04/21 00:49:19;;;;;;;30.20;21.27;;;;;;;;;;5004009;28;20227;-86
2023/04/21 00:51:46;;;;;;;31.70;22.17;;;;;;;;;;5011588;28;20230;-86
2023/04/21 00:54:14;;;;;;;30.60;21.23;;;;;;;;;;5011086;28;20617;-85
2023/04/21 00:56:41;;;;;;;33.83;22.27;;;;;;;;;;5013273;28;20230;-86
2023/04/21 00:59:08;;;;;;;32.40;21.57;;;;;;;;;;5015448;28;20242;-85
2023/04/21 01:01:36;;;;;;;33.03;22.07;;;;;;;;;;5002826;28;20251;-85
2023/04/21 01:04:05;;;;;;;32.70;22.30;;;;;;;;;;5007462;28;20215;-86
2023/04/21 01:06:32;;;;;;;33.73;22.07;;;;;;;;;;5012821;28;20265;-86
2023/04/21 01:09:00;;;;;;;40.13;23.67;;;;;;;;;;5011657;28;20701;-85
2023/04/21 01:11:27;;;;;;;34.47;22.40;;;;;;;;;;5017766;28;20325;-86
2023/04/21 01:13:54;;;;;;;35.13;23.70;;;;;;;;;;5012171;28;20218;-86
2023/04/21 01:16:22;;;;;;;33.50;22.37;;;;;;;;;;5011218;28;20776;-85
2023/04/21 01:18:50;;;;;;;31.10;20.67;;;;;;;;;;5011450;28;20235;-86
2023/04/21 01:21:20;;;;;;;32.57;21.43;;;;;;;;;;5013695;28;20230;-86
2023/04/21 01:23:48;;;;;;;35.60;23.20;;;;;;;;;;5019202;28;20217;-86
2023/04/21 01:26:18;;;;;;;35.33;22.57;;;;;;;;;;5011224;28;20235;-86
2023/04/21 01:28:46;;;;;;;38.53;23.23;;;;;;;;;;5006780;28;20314;-86
2023/04/21 01:31:13;;;;;;;45.60;23.73;;;;;;;;;;5014967;28;20238;-85
2023/04/21 01:33:41;;;;;;;38.10;23.73;;;;;;;;;;5011529;28;20216;-85
2023/04/21 01:36:08;;;;;;;42.63;23.30;;;;;;;;;;5003014;28;20357;-85
2023/04/21 01:38:38;;;;;;;35.30;22.70;;;;;;;;;;5012100;28;20227;-86
2023/04/21 01:41:07;;;;;;;43.20;24.77;;;;;;;;;;5007569;28;20712;-86
2023/04/21 01:43:34;;;;;;;70.30;24.37;;;;;;;;;;5011607;28;20212;-85
2023/04/21 01:46:01;;;;;;;38.93;23.17;;;;;;;;;;5000607;28;20723;-86
2023/04/21 01:48:28;;;;;;;64.50;23.07;;;;;;;;;;5016295;28;20631;-85
2023/04/21 01:50:55;;;;;;;62.00;22.30;;;;;;;;;;4992637;28;20228;-85
2023/04/21 01:53:22;;;;;;;52.33;21.67;;;;;;;;;;5011578;28;20246;-86
2023/04/21 01:55:49;;;;;;;39.10;21.77;;;;;;;;;;5019026;28;20254;-86
2023/04/21 01:58:18;;;;;;;52.63;20.80;;;;;;;;;;5011363;28;20231;-85
2023/04/21 02:00:45;;;;;;;46.07;21.33;;;;;;;;;;5014182;28;20232;-86
2023/04/21 02:03:12;;;;;;;44.73;20.97;;;;;;;;;;5015060;28;20243;-86
2023/04/21 02:05:40;;;;;;;48.40;19.60;;;;;;;;;;5013976;28;20227;-86
2023/04/21 02:08:07;;;;;;;49.33;19.20;;;;;;;;;;5015014;28;20235;-86
2023/04/21 02:10:34;;;;;;;45.03;19.33;;;;;;;;;;5012696;28;20235;-86
2023/04/21 02:13:01;;;;;;;42.43;19.87;;;;;;;;;;5010947;28;20743;-86
2023/04/21 02:15:29;;;;;;;63.53;19.90;;;;;;;;;;5019213;28;20235;-86
2023/04/21 02:17:56;;;;;;;48.80;18.53;;;;;;;;;;5020915;28;20218;-86
2023/04/21 02:20:24;;;;;;;30.47;18.23;;;;;;;;;;5017004;28;20230;-86
2023/04/21 02:22:51;;;;;;;47.90;19.00;;;;;;;;;;5021409;28;20208;-86
2023/04/21 02:25:18;;;;;;;51.30;18.40;;;;;;;;;;5020638;28;20234;-86
2023/04/21 02:27:45;;;;;;;33.43;17.03;;;;;;;;;;5014417;28;20211;-86
2023/04/21 02:30:13;;;;;;;26.83;17.97;;;;;;;;;;5011388;28;20204;-85
2023/04/21 02:32:41;;;;;;;32.80;16.80;;;;;;;;;;5012904;28;20218;-86
2023/04/21 02:35:09;;;;;;;27.43;16.43;;;;;;;;;;5013518;28;20216;-85
2023/04/21 02:37:36;;;;;;;33.37;17.07;;;;;;;;;;5006048;28;20661;-85
2023/04/21 02:40:04;;;;;;;34.20;16.30;;;;;;;;;;5015420;28;20286;-85
2023/04/21 02:42:33;;;;;;;61.60;16.70;;;;;;;;;;5013988;28;20739;-86
2023/04/21 02:45:00;;;;;;;47.90;16.00;;;;;;;;;;5022006;28;20521;-85
2023/04/21 02:47:27;;;;;;;50.87;15.77;;;;;;;;;;5013359;28;20215;-85
2023/04/21 02:49:56;;;;;;;44.13;16.20;;;;;;;;;;5013755;28;20231;-85
2023/04/21 02:52:23;;;;;;;42.67;15.60;;;;;;;;;;5013179;28;20254;-85
2023/04/21 02:54:50;;;;;;;40.10;14.33;;;;;;;;;;5006192;28;20208;-85
2023/04/21 02:57:17;;;;;;;46.53;15.23;;;;;;;;;;5012993;28;20231;-85
2023/04/21 02:59:44;;;;;;;54.00;15.77;;;;;;;;;;5015040;28;20243;-86
2023/04/21 03:02:11;;;;;;;59.17;13.83;;;;;;;;;;5018178;28;20239;-86
2023/04/21 03:04:39;;;;;;;52.77;15.13;;;;;;;;;;5013549;28;20211;-85
2023/04/21 03:07:12;;;;;;;54.40;15.03;;;;;;;;;;5007458;28;20615;-85
2023/04/21 03:09:39;;;;;;;51.27;15.73;;;;;;;;;;5018840;28;20230;-85
2023/04/21 03:12:06;;;;;;;46.07;16.00;;;;;;;;;;5013049;28;20231;-86
2023/04/21 03:14:33;;;;;;;48.20;15.33;;;;;;;;;;5011207;28;20215;-85
2023/04/21 03:17:00;;;;;;;44.77;14.50;;;;;;;;;;5012841;28;20223;-85
2023/04/21 03:19:28;;;;;;;36.67;13.70;;;;;;;;;;5013236;28;20232;-86
2023/04/21 03:21:55;;;;;;;33.73;14.23;;;;;;;;;;5015133;28;20623;-86
2023/04/21 03:24:24;;;;;;;34.97;13.40;;;;;;;;;;5013527;28;20218;-84
2023/04/21 03:26:51;;;;;;;37.30;13.77;;;;;;;;;;5007499;28;20311;-85
2023/04/21 03:29:18;;;;;;;35.77;14.73;;;;;;;;;;5044244;23;20261;-87
2023/04/21 03:31:45;;;;;;;30.23;14.07;;;;;;;;;;5025600;28;20239;-87
2023/04/21 03:34:12;;;;;;;38.13;14.03;;;;;;;;;;5019607;28;20219;-89
2023/04/21 03:36:40;;;;;;;22.17;13.13;;;;;;;;;;5030492;28;20223;-86
2023/04/21 03:39:07;;;;;;;29.07;13.60;;;;;;;;;;5027108;28;20318;-87
2023/04/21 03:41:36;;;;;;;22.40;13.70;;;;;;;;;;5021556;28;20250;-87
2023/04/21 03:44:03;;;;;;;42.77;12.97;;;;;;;;;;5023697;28;20207;-87
2023/04/21 03:46:30;;;;;;;44.60;13.20;;;;;;;;;;5024224;28;20235;-87
2023/04/21 03:48:57;;;;;;;34.83;11.53;;;;;;;;;;5032821;28;20234;-86
2023/04/21 03:51:24;;;;;;;28.63;13.23;;;;;;;;;;5028829;28;20234;-86
2023/04/21 03:53:51;;;;;;;60.47;14.43;;;;;;;;;;5032725;28;20581;-89
2023/04/21 03:56:18;;;;;;;59.07;13.97;;;;;;;;;;5030734;28;20223;-89
2023/04/21 03:58:46;;;;;;;43.30;13.90;;;;;;;;;;5031714;28;20234;-87
2023/04/21 04:01:13;;;;;;;72.07;15.37;;;;;;;;;;5032206;28;20242;-87
2023/04/21 04:03:40;;;;;;;47.27;12.63;;;;;;;;;;5027739;28;20284;-88
2023/04/21 04:06:08;;;;;;;31.93;13.00;;;;;;;;;;5029993;28;20226;-88
2023/04/21 04:08:35;;;;;;;30.77;13.60;;;;;;;;;;5031580;28;20230;-88
2023/04/21 04:11:02;;;;;;;33.73;13.70;;;;;;;;;;5026585;28;20239;-88
2023/04/21 04:13:29;;;;;;;28.10;12.87;;;;;;;;;;5031698;28;20238;-88
2023/04/21 04:15:57;;;;;;;54.03;13.10;;;;;;;;;;5017593;28;20229;-88
2023/04/21 04:18:25;;;;;;;30.23;12.40;;;;;;;;;;5031938;28;20214;-88
2023/04/21 04:20:52;;;;;;;24.67;13.37;;;;;;;;;;5026056;28;20300;-88
2023/04/21 04:23:19;;;;;;;20.40;11.63;;;;;;;;;;5031575;28;20233;-88
2023/04/21 04:25:46;;;;;;;52.97;14.13;;;;;;;;;;5029297;28;20273;-88
2023/04/21 04:28:14;;;;;;;34.83;13.03;;;;;;;;;;5028686;28;20237;-87
2023/04/21 04:30:42;;;;;;;31.33;12.50;;;;;;;;;;5028744;28;20280;-88
2023/04/21 04:33:11;;;;;;;26.77;12.70;;;;;;;;;;5023381;28;20214;-84
2023/04/21 04:35:38;;;;;;;26.90;13.50;;;;;;;;;;5031110;28;20281;-85
2023/04/21 04:38:06;;;;;;;19.57;12.70;;;;;;;;;;5031764;28;20661;-84
2023/04/21 04:40:33;;;;;;;16.23;11.93;;;;;;;;;;5030651;28;20230;-84
2023/04/21 04:43:01;;;;;;;21.27;11.60;;;;;;;;;;5030715;28;20210;-87
2023/04/21 04:45:31;;;;;;;22.17;11.97;;;;;;;;;;5030745;28;20313;-87
2023/04/21 04:47:58;;;;;;;30.97;13.27;;;;;;;;;;5023580;28;20240;-85
2023/04/21 04:50:27;;;;;;;23.47;12.33;;;;;;;;;;5022235;28;20261;-86
2023/04/21 04:52:56;;;;;;;24.63;12.73;;;;;;;;;;5031998;28;20544;-85
2023/04/21 04:55:24;;;;;;;23.67;13.83;;;;;;;;;;5031199;28;20230;-85
2023/04/21 04:57:51;;;;;;;34.73;13.37;;;;;;;;;;5031199;28;20226;-85
2023/04/21 05:00:19;;;;;;;25.37;13.90;;;;;;;;;;5030776;28;20643;-85
2023/04/21 05:02:46;;;;;;;21.80;12.97;;;;;;;;;;5031588;28;20206;-85
2023/04/21 05:05:13;;;;;;;19.17;12.87;;;;;;;;;;5031950;28;20218;-86
2023/04/21 05:07:41;;;;;;;20.83;12.40;;;;;;;;;;5032392;28;20233;-86
2023/04/21 05:10:08;;;;;;;27.93;12.93;;;;;;;;;;5036000;28;20771;-84
2023/04/21 05:12:35;;;;;;;34.70;13.30;;;;;;;;;;5034466;28;20668;-85
2023/04/21 05:15:03;;;;;;;16.30;12.57;;;;;;;;;;5040877;28;20211;-85
2023/04/21 05:17:31;;;;;;;21.77;13.20;;;;;;;;;;5024157;28;20253;-86
2023/04/21 05:19:58;;;;;;;22.30;12.07;;;;;;;;;;5033042;28;20237;-86
2023/04/21 05:22:25;;;;;;;21.83;13.77;;;;;;;;;;5031774;28;20242;-88
2023/04/21 05:24:53;;;;;;;39.20;14.23;;;;;;;;;;5023592;28;20757;-88
2023/04/21 05:27:21;;;;;;;22.67;12.97;;;;;;;;;;5025796;28;20223;-86
2023/04/21 05:29:48;;;;;;;22.17;14.93;;;;;;;;;;5021937;28;20350;-86
2023/04/21 05:32:15;;;;;;;33.37;14.43;;;;;;;;;;5034124;28;20231;-85
2023/04/21 05:34:42;;;;;;;21.73;14.67;;;;;;;;;;5027404;28;20202;-86
2023/04/21 05:37:11;;;;;;;28.27;13.80;;;;;;;;;;5035055;28;20229;-86
2023/04/21 05:39:38;;;;;;;32.43;14.20;;;;;;;;;;5036068;28;20257;-86
2023/04/21 05:42:06;;;;;;;31.73;14.07;;;;;;;;;;5035868;28;20230;-87
2023/04/21 05:44:33;;;;;;;16.73;12.73;;;;;;;;;;5035798;28;20233;-86
2023/04/21 05:47:00;;;;;;;18.03;12.40;;;;;;;;;;5035409;28;20234;-86
2023/04/21 05:49:27;;;;;;;19.73;13.03;;;;;;;;;;5028197;28;20245;-88
2023/04/21 05:51:55;;;;;;;30.33;13.27;;;;;;;;;;5038430;28;20233;-88
2023/04/21 05:54:22;;;;;;;17.43;11.90;;;;;;;;;;5036932;28;20206;-86
2023/04/21 05:56:49;;;;;;;18.80;11.20;;;;;;;;;;5034052;28;20731;-87
2023/04/21 05:59:17;;;;;;;15.23;11.37;;;;;;;;;;5034741;28;20604;-88
2023/04/21 06:01:44;;;;;;;15.83;11.37;;;;;;;;;;5034123;28;20234;-87
2023/04/21 06:04:11;;;;;;;16.87;12.60;;;;;;;;;;5035198;28;20211;-87
2023/04/21 06:06:38;;;;;;;16.40;12.83;;;;;;;;;;5033686;28;20246;-88
2023/04/21 06:09:06;;;;;;;20.80;13.33;;;;;;;;;;5034567;28;20309;-86
2023/04/21 06:11:34;;;;;;;18.40;13.70;;;;;;;;;;5034735;28;20234;-86
2023/04/21 06:14:01;;;;;;;18.93;14.40;;;;;;;;;;5034111;28;20211;-86
2023/04/21 06:16:32;;;;;;;20.53;14.07;;;;;;;;;;5031995;28;20249;-87
2023/04/21 06:18:59;;;;;;;23.73;14.63;;;;;;;;;;5025360;28;20317;-87
2023/04/21 06:21:27;;;;;;;22.57;13.73;;;;;;;;;;5030918;28;20296;-87
2023/04/21 06:23:54;;;;;;;18.27;13.60;;;;;;;;;;5033423;28;20213;-86
2023/04/21 06:26:21;;;;;;;22.00;14.17;;;;;;;;;;5032888;28;20263;-88
2023/04/21 06:28:48;;;;;;;32.90;20.43;;;;;;;;;;5029653;28;20237;-88
2023/04/21 06:31:15;;;;;;;21.43;13.83;;;;;;;;;;5013788;28;20231;-87
2023/04/21 06:33:43;;;;;;;26.40;16.00;;;;;;;;;;5022386;28;20199;-89
2023/04/21 06:36:10;;;;;;;24.50;16.87;;;;;;;;;;5017954;28;20230;-88
2023/04/21 06:38:38;;;;;;;33.20;17.47;;;;;;;;;;5014538;28;20230;-87
2023/04/21 06:41:09;;;;;;;27.40;16.63;;;;;;;;;;5021635;28;20242;-86
2023/04/21 06:43:36;;;;;;;34.03;18.60;;;;;;;;;;5012577;28;20203;-86
2023/04/21 06:46:03;;;;;;;29.00;17.67;;;;;;;;;;5012508;28;20258;-86
2023/04/21 06:48:30;;;;;;;27.90;19.60;;;;;;;;;;5020707;28;20234;-86
2023/04/21 06:51:01;;;;;;;24.80;17.57;;;;;;;;;;5031176;28;20242;-87
2023/04/21 06:53:28;;;;;;;20.60;14.40;;;;;;;;;;5025168;28;20230;-86
2023/04/21 06:55:55;;;;;;;19.67;14.13;;;;;;;;;;5023691;28;20246;-85
2023/04/21 06:58:22;;;;;;;21.97;15.43;;;;;;;;;;5032457;28;20217;-85
2023/04/21 07:00:49;;;;;;;18.80;14.60;;;;;;;;;;5016154;28;20234;-85
2023/04/21 07:03:16;;;;;;;20.23;14.63;;;;;;;;;;5025063;28;20208;-86
2023/04/21 07:05:43;;;;;;;20.10;14.77;;;;;;;;;;5033573;28;20226;-86
2023/04/21 07:08:12;;;;;;;21.73;15.03;;;;;;;;;;5030266;28;20227;-86
2023/04/21 07:10:39;;;;;;;19.17;13.77;;;;;;;;;;5032917;28;20242;-88
2023/04/21 07:13:06;;;;;;;20.80;14.97;;;;;;;;;;5035494;28;20569;-85
2023/04/21 07:15:33;;;;;;;22.43;14.70;;;;;;;;;;5048898;28;20234;-85
2023/04/21 07:18:14;;;;;;;20.33;14.43;;;;;;;;;;5048287;28;20213;-86
2023/04/21 07:20:49;;;;;;;21.60;14.73;;;;;;;;;;5048731;28;20240;-83
2023/04/21 07:23:18;;;;;;;19.13;14.40;;;;;;;;;;5048517;28;20257;-83
2023/04/21 07:26:20;;;;;;;20.17;13.60;;;;;;;;;;5049850;28;20214;-86
2023/04/21 07:28:48;;;;;;;19.17;14.00;;;;;;;;;;5057817;28;20210;-86
2023/04/21 07:31:15;;;;;;;20.70;14.07;;;;;;;;;;5049064;28;20226;-84
2023/04/21 07:33:42;;;;;;;17.80;13.33;;;;;;;;;;5048144;28;20199;-83
2023/04/21 07:36:10;;;;;;;17.47;14.07;;;;;;;;;;5046116;28;20222;-83
2023/04/21 07:38:41;;;;;;;16.87;13.20;;;;;;;;;;5037612;28;20227;-84
2023/04/21 07:41:09;;;;;;;16.50;12.83;;;;;;;;;;5036885;28;20258;-83
2023/04/21 07:43:36;;;;;;;17.47;13.20;;;;;;;;;;5029245;28;20203;-85
2023/04/21 07:46:03;;;;;;;17.53;13.10;;;;;;;;;;5047732;28;20232;-87
2023/04/21 07:48:30;;;;;;;18.60;13.60;;;;;;;;;;5049671;28;20237;-87
2023/04/21 07:50:59;;;;;;;18.57;13.97;;;;;;;;;;5039416;28;20223;-88
2023/04/21 07:53:26;;;;;;;17.23;13.63;;;;;;;;;;5046720;28;20179;-88
2023/04/21 07:55:55;;;;;;;19.50;14.17;;;;;;;;;;5028866;28;20234;-88
2023/04/21 07:58:22;;;;;;;20.93;13.77;;;;;;;;;;5026214;28;20204;-88
2023/04/21 08:00:49;;;;;;;17.17;13.43;;;;;;;;;;5028286;28;20226;-87
2023/04/21 08:03:16;;;;;;;18.47;13.20;;;;;;;;;;5031787;28;20214;-86
2023/04/21 08:05:43;;;;;;;16.00;12.93;;;;;;;;;;5030584;28;20712;-86
2023/04/21 08:08:10;;;;;;;18.87;14.53;;;;;;;;;;5027396;28;20227;-87
2023/04/21 08:10:37;;;;;;;15.40;12.80;;;;;;;;;;5027488;28;20238;-87
2023/04/21 08:13:06;;;;;;;13.73;11.87;;;;;;;;;;5031307;28;20206;-87
2023/04/21 08:15:33;;;;;;;17.00;12.53;;;;;;;;;;5032783;28;20237;-89
2023/04/21 08:18:01;;;;;;;16.53;12.73;;;;;;;;;;5043006;28;20203;-88
2023/04/21 08:20:28;;;;;;;15.03;11.80;;;;;;;;;;5045043;28;20241;-88
2023/04/21 08:22:55;;;;;;;16.27;13.00;;;;;;;;;;5045460;28;20203;-88
2023/04/21 08:25:22;;;;;;;16.07;13.03;;;;;;;;;;5037012;28;20234;-89
2023/04/21 08:27:49;;;;;;;15.13;11.57;;;;;;;;;;5031260;28;20223;-89
2023/04/21 08:30:18;;;;;;;16.27;12.43;;;;;;;;;;5023605;28;20725;-89
2023/04/21 08:32:45;;;;;;;15.77;11.67;;;;;;;;;;5031659;28;20222;-91
2023/04/21 08:35:12;;;;;;;13.83;11.83;;;;;;;;;;5028147;28;20214;-87
2023/04/21 08:37:39;;;;;;;17.83;12.73;;;;;;;;;;5030519;28;20202;-89
2023/04/21 08:40:07;;;;;;;16.67;13.17;;;;;;;;;;5029763;28;20234;-89
2023/04/21 08:42:35;;;;;;;15.77;12.80;;;;;;;;;;5015160;28;20208;-90
2023/04/21 08:45:02;;;;;;;15.43;12.80;;;;;;;;;;5021555;28;20210;-90
2023/04/21 08:47:32;;;;;;;15.70;13.10;;;;;;;;;;5026760;28;20317;-90
2023/04/21 08:49:59;;;;;;;15.80;12.23;;;;;;;;;;5026380;28;20229;-86
2023/04/21 08:52:26;;;;;;;17.73;13.37;;;;;;;;;;5015068;28;20202;-84
2023/04/21 08:54:54;;;;;;;16.40;12.60;;;;;;;;;;5022171;28;20241;-85
2023/04/21 08:57:21;;;;;;;18.23;13.57;;;;;;;;;;5029208;28;20715;-84
2023/04/21 08:59:48;;;;;;;18.70;14.57;;;;;;;;;;5029042;28;20233;-83
2023/04/21 09:02:16;;;;;;;17.67;13.77;;;;;;;;;;5029506;28;20226;-83
2023/04/21 09:04:45;;;;;;;17.40;13.43;;;;;;;;;;5029121;28;20213;-83
2023/04/21 09:07:12;;;;;;;17.03;12.47;;;;;;;;;;5025972;28;20325;-84
2023/04/21 09:09:52;;;;;;;17.00;13.33;;;;;;;;;;5023921;28;20227;-84
2023/04/21 09:12:19;;;;;;;15.37;13.17;;;;;;;;;;5027222;28;20226;-83
2023/04/21 09:14:46;;;;;;;17.73;13.93;;;;;;;;;;5033716;28;20202;-83
2023/04/21 09:17:15;;;;;;;18.00;12.77;;;;;;;;;;5029733;28;20253;-84
2023/04/21 09:19:45;;;;;;;17.03;13.57;;;;;;;;;;5019616;28;20226;-84
2023/04/21 09:22:15;;;;;;;19.97;13.30;;;;;;;;;;5028803;28;20223;-83
2023/04/21 09:24:45;;;;;;;17.47;13.87;;;;;;;;;;5021748;28;20296;-83
2023/04/21 09:27:12;;;;;;;17.73;12.17;;;;;;;;;;5023643;28;20243;-83
2023/04/21 09:29:46;;;;;;;19.27;14.13;;;;;;;;;;5027611;28;20293;-87
2023/04/21 09:32:17;;;;;;;16.87;12.63;;;;;;;;;;5021598;28;20653;-87
2023/04/21 09:34:45;;;;;;;15.37;13.23;;;;;;;;;;5034138;28;20253;-86
2023/04/21 09:37:14;;;;;;;17.73;12.90;;;;;;;;;;5029088;28;20237;-86
2023/04/21 09:39:45;;;;;;;17.30;13.57;;;;;;;;;;5033680;28;20235;-87
2023/04/21 09:42:12;;;;;;;18.77;14.10;;;;;;;;;;5024233;28;20234;-87
2023/04/21 09:44:39;;;;;;;17.73;13.20;;;;;;;;;;5030944;28;20213;-86
2023/04/21 09:47:10;;;;;;;16.10;12.37;;;;;;;;;;5023990;28;20230;-86
2023/04/21 09:49:43;;;;;;;19.03;13.97;;;;;;;;;;5025102;28;20250;-86
2023/04/21 09:52:13;;;;;;;17.97;14.00;;;;;;;;;;5028457;28;20230;-86
2023/04/21 09:54:43;;;;;;;19.23;14.80;;;;;;;;;;5033979;28;20199;-84
2023/04/21 09:57:13;;;;;;;19.47;13.60;;;;;;;;;;5035269;28;20230;-84
2023/04/21 09:59:45;;;;;;;19.03;14.17;;;;;;;;;;5024609;28;20740;-83
2023/04/21 10:02:12;;;;;;;18.97;13.83;;;;;;;;;;5032593;28;20250;-83
2023/04/21 10:04:41;;;;;;;18.07;14.43;;;;;;;;;;5033740;28;20610;-84
2023/04/21 10:07:11;;;;;;;17.47;13.67;;;;;;;;;;5022464;28;20246;-83
2023/04/21 10:09:42;;;;;;;19.07;14.67;;;;;;;;;;5044289;23;20296;-85
2023/04/21 10:12:10;;;;;;;20.87;15.03;;;;;;;;;;5026954;28;20253;-86
2023/04/21 10:14:37;;;;;;;18.93;14.23;;;;;;;;;;5028279;28;20214;-87
2023/04/21 10:17:05;;;;;;;20.77;14.57;;;;;;;;;;5016534;28;20238;-85
2023/04/21 10:19:35;;;;;;;18.07;13.93;;;;;;;;;;5028794;28;20253;-83
2023/04/21 10:22:03;;;;;;;19.70;14.07;;;;;;;;;;5015891;28;20297;-86
2023/04/21 10:24:31;;;;;;;17.23;13.63;;;;;;;;;;5022200;28;20212;-86
2023/04/21 10:27:00;;;;;;;17.93;13.40;;;;;;;;;;5006648;28;20236;-86
2023/04/21 10:29:32;;;;;;;20.00;15.23;;;;;;;;;;5012091;28;20223;-85
2023/04/21 10:31:59;;;;;;;18.20;13.93;;;;;;;;;;5020971;28;20235;-85
2023/04/21 10:34:30;;;;;;;18.00;14.03;;;;;;;;;;5018481;28;20217;-86
2023/04/21 10:37:15;;;;;;;20.23;14.60;;;;;;;;;;5007335;28;20257;-85
2023/04/21 10:39:59;;;;;;;20.17;14.93;;;;;;;;;;5003522;28;20219;-86
2023/04/21 10:42:37;;;;;;;17.43;13.27;;;;;;;;;;5020036;28;20664;-85
2023/04/21 10:45:11;;;;;;;19.07;14.47;;;;;;;;;;5022481;28;20217;-85
2023/04/21 10:47:56;;;;;;;19.87;14.30;;;;;;;;;;5007633;28;20265;-85
2023/04/21 10:50:24;;;;;;;18.20;13.70;;;;;;;;;;5017690;28;20234;-86
2023/04/21 10:53:09;;;;;;;17.37;13.67;;;;;;;;;;5032366;28;20244;-85
2023/04/21 10:55:37;;;;;;;17.90;14.30;;;;;;;;;;5012474;28;20235;-86
2023/04/21 10:58:07;;;;;;;17.73;14.40;;;;;;;;;;5023043;28;20214;-85
2023/04/21 11:00:36;;;;;;;19.30;13.23;;;;;;;;;;5017679;28;20723;-86
2023/04/21 11:03:04;;;;;;;21.97;13.07;;;;;;;;;;5025643;28;20672;-85
2023/04/21 11:05:37;;;;;;;16.33;12.97;;;;;;;;;;5031109;28;20234;-85
2023/04/21 11:08:05;;;;;;;17.30;12.70;;;;;;;;;;5020252;28;20767;-85
2023/04/21 11:10:42;;;;;;;17.33;13.07;;;;;;;;;;5019456;28;20608;-85
2023/04/21 11:13:10;;;;;;;17.60;12.73;;;;;;;;;;5020835;28;20206;-85
2023/04/21 11:15:38;;;;;;;17.67;13.27;;;;;;;;;;5025100;28;20227;-85
2023/04/21 11:18:07;;;;;;;17.10;13.60;;;;;;;;;;5024181;28;20215;-85
2023/04/21 11:20:34;;;;;;;20.47;14.00;;;;;;;;;;5020109;28;20286;-85
2023/04/21 11:23:02;;;;;;;18.10;13.77;;;;;;;;;;5021201;28;20210;-85
2023/04/21 11:25:30;;;;;;;19.23;13.70;;;;;;;;;;5017407;28;20242;-85
2023/04/21 11:27:58;;;;;;;17.10;13.30;;;;;;;;;;5020171;28;20222;-85
2023/04/21 11:30:33;;;;;;;16.27;12.97;;;;;;;;;;5022925;28;20246;-86
2023/04/21 11:33:00;;;;;;;16.03;13.40;;;;;;;;;;5031534;28;20268;-85
2023/04/21 11:35:27;;;;;;;16.63;13.50;;;;;;;;;;5023500;28;20235;-85
2023/04/21 11:37:55;;;;;;;17.37;14.10;;;;;;;;;;5021090;28;20203;-85
2023/04/21 11:40:22;;;;;;;16.57;13.17;;;;;;;;;;5017902;28;20235;-84
2023/04/21 11:42:49;;;;;;;17.00;13.13;;;;;;;;;;5012097;28;20211;-85
2023/04/21 11:45:18;;;;;;;16.63;13.20;;;;;;;;;;5018784;28;20217;-85
2023/04/21 11:47:46;;;;;;;17.57;13.67;;;;;;;;;;5018994;28;20680;-85
2023/04/21 11:50:30;;;;;;;17.60;13.60;;;;;;;;;;5012706;28;20235;-85
2023/04/21 11:52:57;;;;;;;15.13;12.23;;;;;;;;;;5014743;28;20242;-85
2023/04/21 11:55:24;;;;;;;15.90;13.47;;;;;;;;;;5019661;28;20262;-85
2023/04/21 11:57:51;;;;;;;14.60;12.87;;;;;;;;;;5014767;28;20231;-85
2023/04/21 12:00:19;;;;;;;17.03;13.00;;;;;;;;;;5021991;28;20230;-86
2023/04/21 12:02:54;;;;;;;15.00;12.30;;;;;;;;;;5031432;28;20229;-85
2023/04/21 12:05:21;;;;;;;15.60;12.40;;;;;;;;;;5011434;28;20238;-85
2023/04/21 12:07:49;;;;;;;15.63;13.57;;;;;;;;;;5024610;28;20210;-84
2023/04/21 12:10:18;;;;;;;13.90;11.73;;;;;;;;;;5013764;28;20230;-85
2023/04/21 12:12:45;;;;;;;15.33;12.20;;;;;;;;;;5030829;28;20635;-84
2023/04/21 12:15:13;;;;;;;18.07;13.63;;;;;;;;;;5028925;28;20749;-85
2023/04/21 12:17:40;;;;;;;15.83;12.73;;;;;;;;;;5016837;28;20207;-84
2023/04/21 12:20:09;;;;;;;17.27;13.57;;;;;;;;;;5021478;28;20231;-86
2023/04/21 12:22:37;;;;;;;15.60;13.67;;;;;;;;;;5020764;28;20247;-86
2023/04/21 12:25:05;;;;;;;15.77;11.97;;;;;;;;;;5009113;28;20219;-84
2023/04/21 12:27:32;;;;;;;16.17;12.70;;;;;;;;;;5019432;28;20213;-84
2023/04/21 12:29:59;;;;;;;14.53;11.17;;;;;;;;;;5010146;28;20246;-83
2023/04/21 12:32:27;;;;;;;12.73;10.67;;;;;;;;;;5011429;28;20211;-86
2023/04/21 12:34:54;;;;;;;13.03;10.93;;;;;;;;;;5011920;28;20222;-88
2023/04/21 12:37:22;;;;;;;13.13;10.77;;;;;;;;;;5020680;28;20271;-87
2023/04/21 12:39:49;;;;;;;12.33;10.53;;;;;;;;;;5006759;28;20224;-87
2023/04/21 12:42:16;;;;;;;13.30;11.47;;;;;;;;;;5011606;28;20257;-87
2023/04/21 12:44:43;;;;;;;11.97;10.67;;;;;;;;;;5014122;28;20207;-88
2023/04/21 12:47:11;;;;;;;14.20;10.87;;;;;;;;;;5012727;28;20310;-88
2023/04/21 12:49:38;;;;;;;14.50;10.50;;;;;;;;;;5003975;28;20227;-86
2023/04/21 12:52:05;;;;;;;13.77;11.93;;;;;;;;;;5011340;28;20231;-86
2023/04/21 12:54:33;;;;;;;11.07;9.60;;;;;;;;;;5012644;28;20322;-87
2023/04/21 12:57:00;;;;;;;10.47;9.00;;;;;;;;;;5013097;28;20239;-87
2023/04/21 12:59:27;;;;;;;13.43;10.43;;;;;;;;;;5012931;28;20719;-87
2023/04/21 13:01:55;;;;;;;13.88;10.05;;;;;;;;;;5013385;28;20227;-87
2023/04/21 13:04:22;;;;;;;12.40;9.77;;;;;;;;;;5019106;28;20215;-88
2023/04/21 13:06:49;;;;;;;12.05;10.52;;;;;;;;;;5008687;28;20231;-88
2023/04/21 13:09:16;;;;;;;11.10;9.35;;;;;;;;;;5012317;28;20234;-88
2023/04/21 13:11:45;;;;;;;7.55;5.75;;;;;;;;;;5011847;28;20239;-87
2023/04/21 13:14:12;;;;;;;12.40;9.02;;;;;;;;;;5012219;28;20211;-87
2023/04/21 13:16:39;;;;;;;11.43;8.57;;;;;;;;;;5011666;28;20697;-87
2023/04/21 13:19:06;;;;;;;9.43;8.40;;;;;;;;;;5011136;28;20880;-88
2023/04/21 13:21:33;;;;;;;12.05;9.30;;;;;;;;;;5011439;28;20227;-86
2023/04/21 13:24:03;;;;;;;10.88;7.85;;;;;;;;;;5011810;28;20569;-86
2023/04/21 13:26:32;;;;;;;9.40;8.25;;;;;;;;;;5017212;28;20243;-85
2023/04/21 13:29:01;;;;;;;9.73;8.73;;;;;;;;;;5017463;28;20231;-85
2023/04/21 13:31:28;;;;;;;9.88;8.00;;;;;;;;;;5006531;28;20254;-87
2023/04/21 13:33:56;;;;;;;9.57;8.43;;;;;;;;;;5010585;28;20628;-87
2023/04/21 13:36:23;;;;;;;9.35;7.57;;;;;;;;;;5010720;28;20234;-87
2023/04/21 13:38:52;;;;;;;10.35;8.73;;;;;;;;;;5015402;28;20231;-86
2023/04/21 13:41:19;;;;;;;9.63;8.27;;;;;;;;;;5018034;28;20234;-86
2023/04/21 13:43:46;;;;;;;9.07;8.18;;;;;;;;;;5012099;28;20204;-88
2023/04/21 13:46:15;;;;;;;9.20;8.23;;;;;;;;;;5011967;28;20238;-87
2023/04/21 13:48:42;;;;;;;9.60;7.85;;;;;;;;;;5018320;28;20211;-87
2023/04/21 13:51:09;;;;;;;9.32;8.30;;;;;;;;;;5026751;28;20237;-89
2023/04/21 13:53:36;;;;;;;9.77;8.00;;;;;;;;;;5015044;28;20212;-86
2023/04/21 13:56:03;;;;;;;9.45;7.78;;;;;;;;;;5022175;28;20231;-88
2023/04/21 13:58:30;;;;;;;8.82;7.93;;;;;;;;;;5018099;28;20207;-88
2023/04/21 14:00:57;;;;;;;8.25;7.40;;;;;;;;;;5015563;28;20758;-85
2023/04/21 14:03:26;;;;;;;9.35;8.35;;;;;;;;;;5022090;28;20653;-84
2023/04/21 14:05:53;;;;;;;9.88;8.07;;;;;;;;;;5013344;28;20242;-84
2023/04/21 14:08:20;;;;;;;7.75;7.00;;;;;;;;;;5013281;28;20218;-84
2023/04/21 14:10:47;;;;;;;8.95;7.80;;;;;;;;;;5013943;28;20239;-83
2023/04/21 14:13:14;;;;;;;8.65;7.65;;;;;;;;;;5013461;28;20241;-83
2023/04/21 14:15:41;;;;;;;8.23;7.43;;;;;;;;;;5013156;28;20599;-83
2023/04/21 14:18:08;;;;;;;8.95;7.78;;;;;;;;;;5022081;28;20672;-84
2023/04/21 14:20:37;;;;;;;8.77;7.50;;;;;;;;;;5019893;28;20227;-84
2023/04/21 14:23:04;;;;;;;9.23;8.23;;;;;;;;;;5005377;28;20294;-84